sensor_id;sensor_type;location;lat;lon;timestamp;pressure;altitude;pressure_sealevel;temperature;humidity
36354;BME280;22383;51.114;13.666;2024-02-28T00:02:23;67501.94;;;2.79;100.00
36354;BME280;22383;51.114;13.666;2024-02-28T00:04:50;67501.38;;;2.79;100.00
36354;BME280;22383;51.114;13.666;2024-02-28T00:07:17;67498.75;;;2.79;100.00
36354;BME280;22383;51.114;13.666;2024-02-28T00:09:45;67501.00;;;2.81;100.00
36354;BME280;22383;51.114;13.666;2024-02-28T00:12:13;67501.38;;;2.79;100.00
36354;BME280;22383;51.114;13.666;2024-02-28T00:14:42;67497.63;;;2.78;100.00
36354;BME280;22383;51.114;13.666;2024-02-28T00:17:09;67501.00;;;2.81;100.00
36354;BME280;22383;51.114;13.666;2024-02-28T00:19:36;67501.56;;;2.81;100.00
36354;BME280;22383;51.114;13.666;2024-02-28T00:22:03;67501.56;;;2.81;100.00
36354;BME280;22383;51.114;13.666;2024-02-28T00:24:31;67505.88;;;2.83;100.00
36354;BME280;22383;51.114;13.666;2024-02-28T00:26:58;67508.84;;;2.81;100.00
36354;BME280;22383;51.114;13.666;2024-02-28T00:29:25;67499.50;;;2.82;100.00
36354;BME280;22383;51.114;13.666;2024-02-28T00:31:52;67502.69;;;2.82;100.00
36354;BME280;22383;51.114;13.666;2024-02-28T00:34:19;67503.44;;;2.86;100.00
36354;BME280;22383;51.114;13.666;2024-02-28T00:36:46;67510.38;;;2.87;100.00
36354;BME280;22383;51.114;13.666;2024-02-28T00:39:22;67511.28;;;2.86;100.00
36354;BME280;22383;51.114;13.666;2024-02-28T00:41:50;67507.19;;;2.87;100.00
36354;BME280;22383;51.114;13.666;2024-02-28T00:44:17;67510.19;;;2.84;100.00
36354;BME280;22383;51.114;13.666;2024-02-28T00:46:44;67507.56;;;2.84;100.00
36354;BME280;22383;51.114;13.666;2024-02-28T00:49:11;67509.25;;;2.86;100.00
36354;BME280;22383;51.114;13.666;2024-02-28T00:51:38;67508.13;;;2.85;100.00
36354;BME280;22383;51.114;13.666;2024-02-28T00:54:06;67506.66;;;2.86;100.00
36354;BME280;22383;51.114;13.666;2024-02-28T00:56:33;67504.94;;;2.84;100.00
36354;BME280;22383;51.114;13.666;2024-02-28T00:59:00;67511.28;;;2.86;100.00
36354;BME280;22383;51.114;13.666;2024-02-28T01:01:28;67510.38;;;2.87;100.00
36354;BME280;22383;51.114;13.666;2024-02-28T01:03:55;67506.06;;;2.86;100.00
36354;BME280;22383;51.114;13.666;2024-02-28T01:06:22;67511.28;;;2.86;100.00
36354;BME280;22383;51.114;13.666;2024-02-28T01:08:50;67509.25;;;2.86;100.00
36354;BME280;22383;51.114;13.666;2024-02-28T01:11:17;67509.63;;;2.84;100.00
36354;BME280;22383;51.114;13.666;2024-02-28T01:13:44;67506.44;;;2.83;100.00
36354;BME280;22383;51.114;13.666;2024-02-28T01:16:11;67507.00;;;2.84;100.00
36354;BME280;22383;51.114;13.666;2024-02-28T01:18:38;67501.56;;;2.81;100.00
36354;BME280;22383;51.114;13.666;2024-02-28T01:21:05;67502.69;;;2.82;100.00
36354;BME280;22383;51.114;13.666;2024-02-28T01:23:32;67504.94;;;2.84;100.00
36354;BME280;22383;51.114;13.666;2024-02-28T01:25:59;67502.34;;;2.84;100.00
36354;BME280;22383;51.114;13.666;2024-02-28T01:28:30;67504.41;;;2.84;100.00
36354;BME280;22383;51.114;13.666;2024-02-28T01:30:57;67505.50;;;2.85;100.00
36354;BME280;22383;51.114;13.666;2024-02-28T01:33:25;67510.94;;;2.88;100.00
36354;BME280;22383;51.114;13.666;2024-02-28T01:35:52;67505.88;;;2.83;100.00
36354;BME280;22383;51.114;13.666;2024-02-28T01:38:22;67498.41;;;2.81;100.00
36354;BME280;22383;51.114;13.666;2024-02-28T01:40:49;67506.22;;;2.81;100.00
36354;BME280;22383;51.114;13.666;2024-02-28T01:43:16;67501.94;;;2.79;100.00
36354;BME280;22383;51.114;13.666;2024-02-28T01:45:44;67496.50;;;2.77;100.00
36354;BME280;22383;51.114;13.666;2024-02-28T01:48:11;67500.25;;;2.78;100.00
36354;BME280;22383;51.114;13.666;2024-02-28T01:50:39;67501.94;;;2.79;100.00
36354;BME280;22383;51.114;13.666;2024-02-28T01:53:08;67503.03;;;2.80;100.00
36354;BME280;22383;51.114;13.666;2024-02-28T01:55:36;67501.38;;;2.79;100.00
36354;BME280;22383;51.114;13.666;2024-02-28T01:58:04;67501.94;;;2.79;100.00
36354;BME280;22383;51.114;13.666;2024-02-28T02:00:34;67497.06;;;2.77;100.00
36354;BME280;22383;51.114;13.666;2024-02-28T02:03:01;67498.19;;;2.78;100.00
36354;BME280;22383;51.114;13.666;2024-02-28T02:05:29;67499.09;;;2.77;100.00
36354;BME280;22383;51.114;13.666;2024-02-28T02:07:59;67502.84;;;2.78;100.00
36354;BME280;22383;51.114;13.666;2024-02-28T02:10:28;67502.50;;;2.80;100.00
36354;BME280;22383;51.114;13.666;2024-02-28T02:12:55;67496.50;;;2.77;100.00
36354;BME280;22383;51.114;13.666;2024-02-28T02:15:22;67498.53;;;2.76;100.00
36354;BME280;22383;51.114;13.666;2024-02-28T02:17:49;67492.56;;;2.73;100.00
36354;BME280;22383;51.114;13.666;2024-02-28T02:20:17;67490.28;;;2.71;100.00
36354;BME280;22383;51.114;13.666;2024-02-28T02:22:47;67485.25;;;2.67;100.00
36354;BME280;22383;51.114;13.666;2024-02-28T02:25:14;67479.81;;;2.64;100.00
36354;BME280;22383;51.114;13.666;2024-02-28T02:27:42;67485.03;;;2.64;100.00
36354;BME280;22383;51.114;13.666;2024-02-28T02:30:10;67486.53;;;2.63;100.00
36354;BME280;22383;51.114;13.666;2024-02-28T02:32:37;67484.25;;;2.61;100.00
36354;BME280;22383;51.114;13.666;2024-02-28T02:35:04;67479.41;;;2.59;100.00
36354;BME280;22383;51.114;13.666;2024-02-28T02:37:32;67480.53;;;2.60;100.00
36354;BME280;22383;51.114;13.666;2024-02-28T02:39:59;67478.84;;;2.58;100.00
36354;BME280;22383;51.114;13.666;2024-02-28T02:42:26;67475.66;;;2.58;100.00
36354;BME280;22383;51.114;13.666;2024-02-28T02:44:53;67478.84;;;2.58;100.00
36354;BME280;22383;51.114;13.666;2024-02-28T02:47:21;67477.16;;;2.57;100.00
36354;BME280;22383;51.114;13.666;2024-02-28T02:49:48;67477.16;;;2.57;100.00
36354;BME280;22383;51.114;13.666;2024-02-28T02:52:15;67477.50;;;2.55;100.00
36354;BME280;22383;51.114;13.666;2024-02-28T02:54:42;67476.00;;;2.56;100.00
36354;BME280;22383;51.114;13.666;2024-02-28T02:57:09;67475.81;;;2.53;100.00
36354;BME280;22383;51.114;13.666;2024-02-28T02:59:36;67470.59;;;2.53;100.00
36354;BME280;22383;51.114;13.666;2024-02-28T03:02:04;67470.59;;;2.53;100.00
36354;BME280;22383;51.114;13.666;2024-02-28T03:04:31;67465.94;;;2.54;100.00
36354;BME280;22383;51.114;13.666;2024-02-28T03:06:58;67472.28;;;2.55;100.00
36354;BME280;22383;51.114;13.666;2024-02-28T03:09:25;67465.31;;;2.46;100.00
36354;BME280;22383;51.114;13.666;2024-02-28T03:11:52;67457.44;;;2.39;100.00
36354;BME280;22383;51.114;13.666;2024-02-28T03:14:19;67456.31;;;2.38;100.00
36354;BME280;22383;51.114;13.666;2024-02-28T03:16:49;67451.81;;;2.34;100.00
36354;BME280;22383;51.114;13.666;2024-02-28T03:19:16;67447.13;;;2.34;100.00
36354;BME280;22383;51.114;13.666;2024-02-28T03:21:43;67453.50;;;2.35;100.00
36354;BME280;22383;51.114;13.666;2024-02-28T03:24:10;67454.59;;;2.36;100.00
36354;BME280;22383;51.114;13.666;2024-02-28T03:26:37;67452.91;;;2.35;100.00
36354;BME280;22383;51.114;13.666;2024-02-28T03:29:05;67448.28;;;2.35;100.00
36354;BME280;22383;51.114;13.666;2024-02-28T03:31:32;67458.72;;;2.35;100.00
36354;BME280;22383;51.114;13.666;2024-02-28T03:33:59;67457.81;;;2.37;100.00
36354;BME280;22383;51.114;13.666;2024-02-28T03:36:28;67456.31;;;2.38;100.00
36354;BME280;22383;51.114;13.666;2024-02-28T03:38:55;67456.84;;;2.38;100.00
36354;BME280;22383;51.114;13.666;2024-02-28T03:41:22;67455.38;;;2.39;100.00
36354;BME280;22383;51.114;13.666;2024-02-28T03:43:50;67441.16;;;2.31;100.00
36354;BME280;22383;51.114;13.666;2024-02-28T03:46:17;67448.41;;;2.31;100.00
36354;BME280;22383;51.114;13.666;2024-02-28T03:48:44;67445.25;;;2.30;100.00
36354;BME280;22383;51.114;13.666;2024-02-28T03:51:11;67444.47;;;2.27;100.00
36354;BME280;22383;51.114;13.666;2024-02-28T03:53:40;67443.94;;;2.26;100.00
36354;BME280;22383;51.114;13.666;2024-02-28T03:56:07;67437.16;;;2.20;100.00
36354;BME280;22383;51.114;13.666;2024-02-28T03:58:35;67432.84;;;2.19;100.00
36354;BME280;22383;51.114;13.666;2024-02-28T04:01:02;67430.25;;;2.19;100.00
36354;BME280;22383;51.114;13.666;2024-02-28T04:03:29;67431.53;;;2.15;100.00
36354;BME280;22383;51.114;13.666;2024-02-28T04:05:56;67431.75;;;2.18;100.00
36354;BME280;22383;51.114;13.666;2024-02-28T04:08:23;67436.19;;;2.15;100.00
36354;BME280;22383;51.114;13.666;2024-02-28T04:10:50;67426.66;;;2.13;100.00
36354;BME280;22383;51.114;13.666;2024-02-28T04:13:18;67431.53;;;2.15;100.00
36354;BME280;22383;51.114;13.666;2024-02-28T04:15:45;67432.66;;;2.16;100.00
36354;BME280;22383;51.114;13.666;2024-02-28T04:18:13;67435.81;;;2.17;100.00
36354;BME280;22383;51.114;13.666;2024-02-28T04:20:40;67431.16;;;2.17;100.00
36354;BME280;22383;51.114;13.666;2024-02-28T04:23:08;67430.06;;;2.16;100.00
36354;BME280;22383;51.114;13.666;2024-02-28T04:25:35;67434.91;;;2.18;100.00
36354;BME280;22383;51.114;13.666;2024-02-28T04:28:02;67431.16;;;2.17;100.00
36354;BME280;22383;51.114;13.666;2024-02-28T04:30:30;67434.91;;;2.18;100.00
36354;BME280;22383;51.114;13.666;2024-02-28T04:32:57;67430.97;;;2.15;100.00
36354;BME280;22383;51.114;13.666;2024-02-28T04:35:24;67427.22;;;2.14;100.00
36354;BME280;22383;51.114;13.666;2024-02-28T04:37:51;67426.13;;;2.13;100.00
36354;BME280;22383;51.114;13.666;2024-02-28T04:40:18;67431.88;;;2.13;100.00
36354;BME280;22383;51.114;13.666;2024-02-28T04:42:45;67426.66;;;2.13;100.00
36354;BME280;22383;51.114;13.666;2024-02-28T04:45:13;67421.94;;;2.06;100.00
36354;BME280;22383;51.114;13.666;2024-02-28T04:47:40;67426.25;;;2.08;100.00
36354;BME280;22383;51.114;13.666;2024-02-28T04:50:11;67423.09;;;2.07;100.00
36354;BME280;22383;51.114;13.666;2024-02-28T04:52:38;67421.03;;;2.08;100.00
36354;BME280;22383;51.114;13.666;2024-02-28T04:55:06;67418.22;;;2.05;100.00
36354;BME280;22383;51.114;13.666;2024-02-28T04:57:33;67417.66;;;2.05;100.00
36354;BME280;22383;51.114;13.666;2024-02-28T05:00:01;67420.06;;;2.02;100.00
36354;BME280;22383;51.114;13.666;2024-02-28T05:02:28;67419.72;;;2.04;100.00
36354;BME280;22383;51.114;13.666;2024-02-28T05:04:55;67419.16;;;2.04;100.00
36354;BME280;22383;51.114;13.666;2024-02-28T05:07:22;67422.31;;;2.04;100.00
36354;BME280;22383;51.114;13.666;2024-02-28T05:09:49;67417.47;;;2.02;100.00
36354;BME280;22383;51.114;13.666;2024-02-28T05:12:16;67414.84;;;2.02;100.00
36354;BME280;22383;51.114;13.666;2024-02-28T05:14:44;67417.09;;;2.04;100.00
36354;BME280;22383;51.114;13.666;2024-02-28T05:17:12;67418.59;;;2.03;100.00
36354;BME280;22383;51.114;13.666;2024-02-28T05:19:40;67415.22;;;2.00;100.00
36354;BME280;22383;51.114;13.666;2024-02-28T05:22:07;67414.84;;;2.02;100.00
36354;BME280;22383;51.114;13.666;2024-02-28T05:24:34;67415.22;;;2.00;100.00
36354;BME280;22383;51.114;13.666;2024-02-28T05:27:02;67415.97;;;2.03;100.00
36354;BME280;22383;51.114;13.666;2024-02-28T05:29:29;67416.69;;;1.99;100.00
36354;BME280;22383;51.114;13.666;2024-02-28T05:31:56;67406.97;;;1.95;100.00
36354;BME280;22383;51.114;13.666;2024-02-28T05:34:24;67408.66;;;1.97;100.00
36354;BME280;22383;51.114;13.666;2024-02-28T05:36:51;67404.91;;;1.96;100.00
36354;BME280;22383;51.114;13.666;2024-02-28T05:39:18;67411.06;;;1.94;100.00
36354;BME280;22383;51.114;13.666;2024-02-28T05:41:45;67405.84;;;1.94;100.00
36354;BME280;22383;51.114;13.666;2024-02-28T05:44:12;67408.44;;;1.94;100.00
36354;BME280;22383;51.114;13.666;2024-02-28T05:46:39;67406.75;;;1.93;100.00
36354;BME280;22383;51.114;13.666;2024-02-28T05:49:06;67404.72;;;1.93;100.00
36354;BME280;22383;51.114;13.666;2024-02-28T05:51:35;67401.34;;;1.90;100.00
36354;BME280;22383;51.114;13.666;2024-02-28T05:54:03;67399.09;;;1.88;100.00
36354;BME280;22383;51.114;13.666;2024-02-28T05:56:30;67401.91;;;1.91;100.00
36354;BME280;22383;51.114;13.666;2024-02-28T05:58:57;67403.03;;;1.92;100.00
36354;BME280;22383;51.114;13.666;2024-02-28T06:01:24;67399.28;;;1.91;100.00
36354;BME280;22383;51.114;13.666;2024-02-28T06:03:52;67405.06;;;1.91;100.00
36354;BME280;22383;51.114;13.666;2024-02-28T06:06:19;67404.50;;;1.91;100.00
36354;BME280;22383;51.114;13.666;2024-02-28T06:08:46;67402.81;;;1.89;100.00
36354;BME280;22383;51.114;13.666;2024-02-28T06:11:13;67405.28;;;1.94;100.00
36354;BME280;22383;51.114;13.666;2024-02-28T06:13:41;67404.16;;;1.93;100.00
36354;BME280;22383;51.114;13.666;2024-02-28T06:16:13;67405.06;;;1.91;100.00
36354;BME280;22383;51.114;13.666;2024-02-28T06:18:42;67403.03;;;1.92;100.00
36354;BME280;22383;51.114;13.666;2024-02-28T06:21:09;67399.84;;;1.91;100.00
36354;BME280;22383;51.114;13.666;2024-02-28T06:23:36;67404.16;;;1.93;100.00
36354;BME280;22383;51.114;13.666;2024-02-28T06:26:03;67403.59;;;1.92;100.00
36354;BME280;22383;51.114;13.666;2024-02-28T06:28:31;67409.56;;;1.95;100.00
36354;BME280;22383;51.114;13.666;2024-02-28T06:30:59;67408.66;;;1.97;100.00
36354;BME280;22383;51.114;13.666;2024-02-28T06:33:26;67407.53;;;1.96;100.00
36354;BME280;22383;51.114;13.666;2024-02-28T06:35:54;67403.03;;;1.92;100.00
36354;BME280;22383;51.114;13.666;2024-02-28T06:38:21;67405.06;;;1.91;100.00
36354;BME280;22383;51.114;13.666;2024-02-28T06:40:48;67399.09;;;1.88;100.00
36354;BME280;22383;51.114;13.666;2024-02-28T06:43:15;67399.66;;;1.88;100.00
36354;BME280;22383;51.114;13.666;2024-02-28T06:45:43;67397.19;;;1.84;100.00
36354;BME280;22383;51.114;13.666;2024-02-28T06:48:10;67400.00;;;1.86;100.00
36354;BME280;22383;51.114;13.666;2024-02-28T06:50:37;67396.63;;;1.83;100.00
36354;BME280;22383;51.114;13.666;2024-02-28T06:53:04;67396.25;;;1.85;100.00
36354;BME280;22383;51.114;13.666;2024-02-28T06:55:31;67401.47;;;1.85;100.00
36354;BME280;22383;51.114;13.666;2024-02-28T06:57:58;67396.84;;;1.86;100.00
36354;BME280;22383;51.114;13.666;2024-02-28T07:00:26;67397.75;;;1.84;100.00
36354;BME280;22383;51.114;13.666;2024-02-28T07:02:53;67395.72;;;1.85;100.00
36354;BME280;22383;51.114;13.666;2024-02-28T07:05:21;67398.31;;;1.85;100.00
36354;BME280;22383;51.114;13.666;2024-02-28T07:07:49;67396.44;;;1.81;100.00
36354;BME280;22383;51.114;13.666;2024-02-28T07:10:16;67394.38;;;1.81;100.00
36354;BME280;22383;51.114;13.666;2024-02-28T07:12:43;67389.53;;;1.79;100.00
36354;BME280;22383;51.114;13.666;2024-02-28T07:15:10;67391.00;;;1.78;100.00
36354;BME280;22383;51.114;13.666;2024-02-28T07:17:37;67394.75;;;1.79;100.00
36354;BME280;22383;51.114;13.666;2024-02-28T07:20:05;67391.56;;;1.79;100.00
36354;BME280;22383;51.114;13.666;2024-02-28T07:22:33;67393.59;;;1.78;100.00
36354;BME280;22383;51.114;13.666;2024-02-28T07:25:01;67394.56;;;1.84;100.00
36354;BME280;22383;51.114;13.666;2024-02-28T07:27:28;67392.91;;;1.82;100.00
36354;BME280;22383;51.114;13.666;2024-02-28T07:29:55;67392.91;;;1.82;100.00
36354;BME280;22383;51.114;13.666;2024-02-28T07:32:22;67395.50;;;1.82;100.00
36354;BME280;22383;51.114;13.666;2024-02-28T07:34:50;67393.66;;;1.85;100.00
36354;BME280;22383;51.114;13.666;2024-02-28T07:37:17;67402.81;;;1.89;100.00
36354;BME280;22383;51.114;13.666;2024-02-28T07:39:44;67401.91;;;1.91;100.00
36354;BME280;22383;51.114;13.666;2024-02-28T07:42:11;67405.06;;;1.91;100.00
36354;BME280;22383;51.114;13.666;2024-02-28T07:44:39;67401.91;;;1.91;100.00
36354;BME280;22383;51.114;13.666;2024-02-28T07:47:06;67408.09;;;1.96;100.00
36354;BME280;22383;51.114;13.666;2024-02-28T07:49:33;67411.81;;;1.97;100.00
36354;BME280;22383;51.114;13.666;2024-02-28T07:52:00;67411.06;;;1.94;100.00
36354;BME280;22383;51.114;13.666;2024-02-28T07:54:28;67402.44;;;1.91;100.00
36354;BME280;22383;51.114;13.666;2024-02-28T07:56:55;67409.94;;;1.93;100.00
36354;BME280;22383;51.114;13.666;2024-02-28T07:59:22;67410.69;;;1.96;100.00
36354;BME280;22383;51.114;13.666;2024-02-28T08:01:50;67404.72;;;1.93;100.00
36354;BME280;22383;51.114;13.666;2024-02-28T08:04:17;67410.13;;;1.96;100.00
36354;BME280;22383;51.114;13.666;2024-02-28T08:06:44;67384.03;;;1.96;100.00
36354;BME280;22383;51.114;13.666;2024-02-28T08:09:11;67405.84;;;1.94;100.00
36354;BME280;22383;51.114;13.666;2024-02-28T08:11:39;67406.41;;;1.95;100.00
36354;BME280;22383;51.114;13.666;2024-02-28T08:14:07;67412.97;;;1.98;100.00
36354;BME280;22383;51.114;13.666;2024-02-28T08:16:34;67408.66;;;1.97;100.00
36354;BME280;22383;51.114;13.666;2024-02-28T08:19:01;67408.66;;;1.97;100.00
36354;BME280;22383;51.114;13.666;2024-02-28T08:21:28;67413.16;;;2.01;100.00
36354;BME280;22383;51.114;13.666;2024-02-28T08:23:56;67409.22;;;1.97;100.00
36354;BME280;22383;51.114;13.666;2024-02-28T08:26:25;67416.91;;;2.02;100.00
36354;BME280;22383;51.114;13.666;2024-02-28T08:28:52;67417.81;;;2.00;100.00
36354;BME280;22383;51.114;13.666;2024-02-28T08:31:19;67406.19;;;1.92;100.00
36354;BME280;22383;51.114;13.666;2024-02-28T08:33:46;67408.09;;;1.96;100.00
36354;BME280;22383;51.114;13.666;2024-02-28T08:36:14;67412.38;;;1.98;100.00
36354;BME280;22383;51.114;13.666;2024-02-28T08:38:42;67406.97;;;1.95;100.00
36354;BME280;22383;51.114;13.666;2024-02-28T08:41:09;67410.91;;;1.99;100.00
36354;BME280;22383;51.114;13.666;2024-02-28T08:43:40;67404.16;;;1.93;100.00
36354;BME280;22383;51.114;13.666;2024-02-28T08:46:07;67412.38;;;1.98;100.00
36354;BME280;22383;51.114;13.666;2024-02-28T08:48:34;67418.00;;;2.03;100.00
36354;BME280;22383;51.114;13.666;2024-02-28T08:51:02;67424.78;;;2.09;100.00
36354;BME280;22383;51.114;13.666;2024-02-28T08:53:29;67428.72;;;2.13;100.00
36354;BME280;22383;51.114;13.666;2024-02-28T08:55:56;67419.91;;;2.07;100.00
36354;BME280;22383;51.114;13.666;2024-02-28T08:58:23;67418.78;;;2.06;100.00
36354;BME280;22383;51.114;13.666;2024-02-28T09:00:50;67421.59;;;2.08;100.00
36354;BME280;22383;51.114;13.666;2024-02-28T09:03:18;67411.31;;;2.04;100.00
36354;BME280;22383;51.114;13.666;2024-02-28T09:05:46;67410.19;;;2.03;100.00
36354;BME280;22383;51.114;13.666;2024-02-28T09:08:14;67416.53;;;2.04;100.00
36354;BME280;22383;51.114;13.666;2024-02-28T09:10:41;67415.03;;;2.05;100.00
36354;BME280;22383;51.114;13.666;2024-02-28T09:13:08;67422.16;;;2.09;100.00
36354;BME280;22383;51.114;13.666;2024-02-28T09:15:37;67424.41;;;2.11;100.00
36354;BME280;22383;51.114;13.666;2024-02-28T09:18:04;67430.97;;;2.15;100.00
36354;BME280;22383;51.114;13.666;2024-02-28T09:20:32;67424.19;;;2.08;100.00
36354;BME280;22383;51.114;13.666;2024-02-28T09:22:59;67432.44;;;2.14;100.00
36354;BME280;22383;51.114;13.666;2024-02-28T09:25:26;67435.69;;;2.21;100.00
36354;BME280;22383;51.114;13.666;2024-02-28T09:27:55;67419.34;;;2.06;100.00
36354;BME280;22383;51.114;13.666;2024-02-28T09:30:22;67418.22;;;2.05;100.00
36354;BME280;22383;51.114;13.666;2024-02-28T09:32:56;67424.41;;;2.11;100.00
36354;BME280;22383;51.114;13.666;2024-02-28T09:35:23;67421.94;;;2.06;100.00
36354;BME280;22383;51.114;13.666;2024-02-28T09:37:50;67409.78;;;1.98;100.00
36354;BME280;22383;51.114;13.666;2024-02-28T09:40:17;67401.13;;;1.87;100.00
36354;BME280;22383;51.114;13.666;2024-02-28T09:42:47;67404.50;;;1.91;100.00
36354;BME280;22383;51.114;13.666;2024-02-28T09:45:20;67407.66;;;1.91;100.00
36354;BME280;22383;51.114;13.666;2024-02-28T09:47:48;67401.34;;;1.90;100.00
36354;BME280;22383;51.114;13.666;2024-02-28T09:50:17;67401.19;;;1.95;100.00
36354;BME280;22383;51.114;13.666;2024-02-28T09:52:46;67405.63;;;1.92;100.00
36354;BME280;22383;51.114;13.666;2024-02-28T09:55:27;67410.13;;;1.96;100.00
36354;BME280;22383;51.114;13.666;2024-02-28T09:57:55;67409.22;;;1.97;100.00
36354;BME280;22383;51.114;13.666;2024-02-28T10:00:24;67400.78;;;1.89;100.00
36354;BME280;22383;51.114;13.666;2024-02-28T10:02:53;67391.22;;;1.81;100.00
36354;BME280;22383;51.114;13.666;2024-02-28T10:05:20;67397.97;;;1.87;100.00
36354;BME280;22383;51.114;13.666;2024-02-28T10:07:49;67368.28;;;1.81;100.00
36354;BME280;22383;51.114;13.666;2024-02-28T10:10:16;67402.81;;;1.89;100.00
36354;BME280;22383;51.114;13.666;2024-02-28T10:12:44;67403.81;;;1.95;100.00
36354;BME280;22383;51.114;13.666;2024-02-28T10:15:12;67403.22;;;1.94;100.00
36354;BME280;22383;51.114;13.666;2024-02-28T10:17:39;67406.75;;;1.93;100.00
36354;BME280;22383;51.114;13.666;2024-02-28T10:20:06;67414.06;;;1.99;100.00
36354;BME280;22383;51.114;13.666;2024-02-28T10:22:37;67405.28;;;1.94;100.00
36354;BME280;22383;51.114;13.666;2024-02-28T10:25:05;67408.44;;;1.94;100.00
36354;BME280;22383;51.114;13.666;2024-02-28T10:27:33;67400.94;;;1.85;100.00
36354;BME280;22383;51.114;13.666;2024-02-28T10:30:03;67390.63;;;1.80;100.00
36354;BME280;22383;51.114;13.666;2024-02-28T10:32:34;67387.63;;;1.75;100.00
36354;BME280;22383;51.114;13.666;2024-02-28T10:35:03;67386.28;;;1.72;100.00
36354;BME280;22383;51.114;13.666;2024-02-28T10:37:32;67382.94;;;1.68;100.00
36354;BME280;22383;51.114;13.666;2024-02-28T10:40:00;67370.03;;;1.64;100.00
36354;BME280;22383;51.114;13.666;2024-02-28T10:42:29;67370.88;;;1.55;100.00
36354;BME280;22383;51.114;13.666;2024-02-28T10:45:01;67374.69;;;1.63;100.00
36354;BME280;22383;51.114;13.666;2024-02-28T10:47:50;67383.69;;;1.72;100.00
36354;BME280;22383;51.114;13.666;2024-02-28T10:50:18;67382.19;;;1.73;100.00
36354;BME280;22383;51.114;13.666;2024-02-28T10:52:46;67378.81;;;1.69;100.00
36354;BME280;22383;51.114;13.666;2024-02-28T10:55:21;67401.13;;;1.87;100.00
36354;BME280;22383;51.114;13.666;2024-02-28T10:57:54;67396.47;;;1.88;100.00
36354;BME280;22383;51.114;13.666;2024-02-28T11:00:25;67397.41;;;1.86;100.00
36354;BME280;22383;51.114;13.666;2024-02-28T11:02:52;67403.94;;;1.90;100.00
36354;BME280;22383;51.114;13.666;2024-02-28T11:05:20;67392.69;;;1.80;100.00
36354;BME280;22383;51.114;13.666;2024-02-28T11:07:51;67389.88;;;1.77;100.00
36354;BME280;22383;51.114;13.666;2024-02-28T11:10:23;67392.50;;;1.77;100.00
36354;BME280;22383;51.114;13.666;2024-02-28T11:12:56;67394.03;;;1.83;100.00
36354;BME280;22383;51.114;13.666;2024-02-28T11:15:24;67401.53;;;1.93;100.00
36354;BME280;22383;51.114;13.666;2024-02-28T11:17:52;67403.03;;;1.92;100.00
36354;BME280;22383;51.114;13.666;2024-02-28T11:20:19;67414.84;;;2.02;100.00
36354;BME280;22383;51.114;13.666;2024-02-28T11:22:46;67408.09;;;1.96;100.00
36354;BME280;22383;51.114;13.666;2024-02-28T11:25:14;67420.47;;;2.07;100.00
36354;BME280;22383;51.114;13.666;2024-02-28T11:27:46;67439.56;;;2.18;100.00
36354;BME280;22383;51.114;13.666;2024-02-28T11:30:14;67416.72;;;2.06;100.00
36354;BME280;22383;51.114;13.666;2024-02-28T11:32:41;67420.88;;;2.13;100.00
36354;BME280;22383;51.114;13.666;2024-02-28T11:35:09;67427.03;;;2.11;100.00
36354;BME280;22383;51.114;13.666;2024-02-28T11:37:38;67419.34;;;2.06;100.00
36354;BME280;22383;51.114;13.666;2024-02-28T11:40:09;67412.38;;;1.98;100.00
36354;BME280;22383;51.114;13.666;2024-02-28T11:42:37;67402.44;;;1.91;100.00
36354;BME280;22383;51.114;13.666;2024-02-28T11:45:05;67397.97;;;1.87;100.00
36354;BME280;22383;51.114;13.666;2024-02-28T11:47:32;67399.66;;;1.88;100.00
36354;BME280;22383;51.114;13.666;2024-02-28T11:50:03;67397.97;;;1.87;100.00
36354;BME280;22383;51.114;13.666;2024-02-28T11:52:34;67402.44;;;1.91;100.00
36354;BME280;22383;51.114;13.666;2024-02-28T11:55:01;67397.97;;;1.87;100.00
36354;BME280;22383;51.114;13.666;2024-02-28T11:57:29;67405.84;;;1.94;100.00
36354;BME280;22383;51.114;13.666;2024-02-28T12:00:07;67402.44;;;1.91;100.00
36354;BME280;22383;51.114;13.666;2024-02-28T12:02:36;67421.75;;;2.04;100.00
36354;BME280;22383;51.114;13.666;2024-02-28T12:05:04;67445.63;;;2.28;100.00
36354;BME280;22383;51.114;13.666;2024-02-28T12:07:32;67477.91;;;2.60;100.00
36354;BME280;22383;51.114;13.666;2024-02-28T12:09:59;67469.25;;;2.50;100.00
36354;BME280;22383;51.114;13.666;2024-02-28T12:12:27;67474.91;;;2.55;100.00
36354;BME280;22383;51.114;13.666;2024-02-28T12:14:58;67467.00;;;2.48;100.00
36354;BME280;22383;51.114;13.666;2024-02-28T12:17:26;67451.09;;;2.38;100.00
36354;BME280;22383;51.114;13.666;2024-02-28T12:19:54;67459.53;;;2.45;100.00
36354;BME280;22383;51.114;13.666;2024-02-28T12:22:22;67469.25;;;2.50;100.00
36354;BME280;22383;51.114;13.666;2024-02-28T12:24:49;67472.47;;;2.57;100.00
36354;BME280;22383;51.114;13.666;2024-02-28T12:27:16;67466.44;;;2.47;100.00
36354;BME280;22383;51.114;13.666;2024-02-28T12:29:45;67475.81;;;2.53;100.00
36354;BME280;22383;51.114;13.666;2024-02-28T12:32:12;67467.94;;;2.46;100.00
36354;BME280;22383;51.114;13.666;2024-02-28T12:34:39;67464.75;;;2.45;100.00
36354;BME280;22383;51.114;13.666;2024-02-28T12:37:06;67448.97;;;2.31;100.00
36354;BME280;22383;51.114;13.666;2024-02-28T12:39:34;67441.69;;;2.24;100.00
36354;BME280;22383;51.114;13.666;2024-02-28T12:42:02;67440.19;;;2.25;100.00
36354;BME280;22383;51.114;13.666;2024-02-28T12:44:29;67451.81;;;2.34;100.00
36354;BME280;22383;51.114;13.666;2024-02-28T12:46:57;67444.47;;;2.27;100.00
36354;BME280;22383;51.114;13.666;2024-02-28T12:49:24;67458.00;;;2.39;100.00
36354;BME280;22383;51.114;13.666;2024-02-28T12:51:51;67454.81;;;2.39;100.00
36354;BME280;22383;51.114;13.666;2024-02-28T12:54:19;67459.88;;;2.43;100.00